MSC Istanbul — D5LL2 — position and weather

sailwx.info

Track history (hours):
 
Tides and Currents Weather Stations Pressure Air Temp Water Temp Dewpoint Dewpoint Depression Visibility Wind Speed Wind Dir Waves Ship Positions

MSC Istanbul

Last reported at 2017-Oct-15 01:29 UTC. Time now 2017-Oct-17 02:14 UTC.
Position N 01°06' E 103°33'.

Length 399 m; draft 10.3 m.

Type: Ship (hazmat cat A). MMSI: 636017537.

Date/timePositionNaut miles runAvg speedWind from/ knotsBaromVisibWave heightAir tempDewpointWater temp
2017-Oct-15 01:29N 01°06' E 103°33'2 3.6
2017-Oct-15 01:00N 01°07' E 103°31'43 5.1
2017-Oct-14 16:33N 01°16' E 104°13'117.7
2017-Oct-14 16:29N 01°15' E 104°12'817.0
2017-Oct-14 16:00N 01°15' E 104°04'816.1
2017-Oct-14 15:30N 01°13' E 103°56'816.2
2017-Oct-14 15:00N 01°10' E 103°49'816.8
2017-Oct-14 14:30N 01°04' E 103°42'713.9
2017-Oct-14 14:00N 01°05' E 103°35'816.7
2017-Oct-14 13:30N 01°09' E 103°28'816.3
2017-Oct-14 13:00N 01°14' E 103°21'816.3
2017-Oct-14 12:30N 01°19' E 103°15'  
Track history (hours):
 
Tides and Currents Weather Stations Pressure Air Temp Water Temp Dewpoint Dewpoint Depression Visibility Wind Speed Wind Dir Waves Ship Positions

MSC Istanbul

Last reported at 2017-Oct-15 01:29 UTC. Time now 2017-Oct-17 02:14 UTC.
Position N 01°06' E 103°33'.

Length 399 m; draft 10.3 m.

Type: Ship (hazmat cat A). MMSI: 636017537.

Date/timePositionNaut miles runAvg speedWind from/ knotsBaromVisibWave heightAir tempDewpointWater temp
2017-Oct-15 01:29N 01°06' E 103°33'2 3.6
2017-Oct-15 01:00N 01°07' E 103°31'43 5.1
2017-Oct-14 16:33N 01°16' E 104°13'117.7
2017-Oct-14 16:29N 01°15' E 104°12'817.0
2017-Oct-14 16:00N 01°15' E 104°04'816.1
2017-Oct-14 15:30N 01°13' E 103°56'816.2
2017-Oct-14 15:00N 01°10' E 103°49'816.8
2017-Oct-14 14:30N 01°04' E 103°42'713.9
2017-Oct-14 14:00N 01°05' E 103°35'816.7
2017-Oct-14 13:30N 01°09' E 103°28'816.3
2017-Oct-14 13:00N 01°14' E 103°21'816.3
2017-Oct-14 12:30N 01°19' E 103°15'  

Dump ship's entire track history